sensor_id;sensor_type;location;lat;lon;timestamp;P1;durP1;ratioP1;P2;durP2;ratioP2
60700;SDS011;46541;49.894;10.886;2023-04-21T00:00:51;23.73;;;15.55;;
60700;SDS011;46541;49.894;10.886;2023-04-21T00:03:19;24.33;;;16.23;;
60700;SDS011;46541;49.894;10.886;2023-04-21T00:05:49;26.10;;;15.57;;
60700;SDS011;46541;49.894;10.886;2023-04-21T00:08:16;23.15;;;15.63;;
60700;SDS011;46541;49.894;10.886;2023-04-21T00:10:44;23.80;;;15.05;;
60700;SDS011;46541;49.894;10.886;2023-04-21T00:13:12;23.60;;;15.43;;
60700;SDS011;46541;49.894;10.886;2023-04-21T00:15:39;21.63;;;14.52;;
60700;SDS011;46541;49.894;10.886;2023-04-21T00:18:06;22.45;;;14.05;;
60700;SDS011;46541;49.894;10.886;2023-04-21T00:20:34;23.42;;;14.63;;
60700;SDS011;46541;49.894;10.886;2023-04-21T00:23:01;21.90;;;14.23;;
60700;SDS011;46541;49.894;10.886;2023-04-21T00:25:29;23.20;;;15.00;;
60700;SDS011;46541;49.894;10.886;2023-04-21T00:27:55;21.70;;;14.00;;
60700;SDS011;46541;49.894;10.886;2023-04-21T00:30:22;20.90;;;14.38;;
60700;SDS011;46541;49.894;10.886;2023-04-21T00:32:49;23.90;;;14.95;;
60700;SDS011;46541;49.894;10.886;2023-04-21T00:35:16;21.98;;;14.00;;
60700;SDS011;46541;49.894;10.886;2023-04-21T00:37:42;23.83;;;16.08;;
60700;SDS011;46541;49.894;10.886;2023-04-21T00:40:10;26.65;;;15.40;;
60700;SDS011;46541;49.894;10.886;2023-04-21T00:42:37;25.85;;;16.27;;
60700;SDS011;46541;49.894;10.886;2023-04-21T00:45:04;21.85;;;14.15;;
60700;SDS011;46541;49.894;10.886;2023-04-21T00:47:31;22.83;;;15.40;;
60700;SDS011;46541;49.894;10.886;2023-04-21T00:49:58;26.33;;;15.20;;
60700;SDS011;46541;49.894;10.886;2023-04-21T00:52:25;24.00;;;15.23;;
60700;SDS011;46541;49.894;10.886;2023-04-21T00:54:53;22.55;;;14.20;;
60700;SDS011;46541;49.894;10.886;2023-04-21T00:57:20;22.15;;;15.02;;
60700;SDS011;46541;49.894;10.886;2023-04-21T00:59:47;27.85;;;16.58;;
60700;SDS011;46541;49.894;10.886;2023-04-21T01:02:15;29.08;;;17.05;;
60700;SDS011;46541;49.894;10.886;2023-04-21T01:04:42;25.23;;;16.20;;
60700;SDS011;46541;49.894;10.886;2023-04-21T01:07:10;24.83;;;15.90;;
60700;SDS011;46541;49.894;10.886;2023-04-21T01:09:37;29.23;;;16.77;;
60700;SDS011;46541;49.894;10.886;2023-04-21T01:12:05;26.90;;;16.52;;
60700;SDS011;46541;49.894;10.886;2023-04-21T01:14:34;26.38;;;16.05;;
60700;SDS011;46541;49.894;10.886;2023-04-21T01:17:01;23.13;;;15.18;;
60700;SDS011;46541;49.894;10.886;2023-04-21T01:19:34;26.20;;;16.65;;
60700;SDS011;46541;49.894;10.886;2023-04-21T01:22:05;23.85;;;16.10;;
60700;SDS011;46541;49.894;10.886;2023-04-21T01:24:39;23.80;;;15.45;;
60700;SDS011;46541;49.894;10.886;2023-04-21T01:27:17;28.88;;;16.30;;
60700;SDS011;46541;49.894;10.886;2023-04-21T01:29:46;29.13;;;17.00;;
60700;SDS011;46541;49.894;10.886;2023-04-21T01:32:21;25.52;;;16.08;;
60700;SDS011;46541;49.894;10.886;2023-04-21T01:34:51;27.27;;;16.58;;
60700;SDS011;46541;49.894;10.886;2023-04-21T01:37:20;29.67;;;17.35;;
60700;SDS011;46541;49.894;10.886;2023-04-21T01:39:52;26.70;;;17.25;;
60700;SDS011;46541;49.894;10.886;2023-04-21T01:42:21;23.67;;;15.82;;
60700;SDS011;46541;49.894;10.886;2023-04-21T01:44:49;26.05;;;16.73;;
60700;SDS011;46541;49.894;10.886;2023-04-21T01:47:18;35.47;;;19.88;;
60700;SDS011;46541;49.894;10.886;2023-04-21T01:49:45;28.00;;;15.88;;
60700;SDS011;46541;49.894;10.886;2023-04-21T01:52:12;25.58;;;15.82;;
60700;SDS011;46541;49.894;10.886;2023-04-21T01:54:39;23.98;;;16.02;;
60700;SDS011;46541;49.894;10.886;2023-04-21T01:57:05;27.95;;;16.65;;
60700;SDS011;46541;49.894;10.886;2023-04-21T01:59:32;29.30;;;16.25;;
60700;SDS011;46541;49.894;10.886;2023-04-21T02:01:59;26.77;;;15.82;;
60700;SDS011;46541;49.894;10.886;2023-04-21T02:04:26;26.80;;;16.73;;
60700;SDS011;46541;49.894;10.886;2023-04-21T02:06:53;26.38;;;16.58;;
60700;SDS011;46541;49.894;10.886;2023-04-21T02:09:19;25.60;;;17.10;;
60700;SDS011;46541;49.894;10.886;2023-04-21T02:11:47;23.85;;;15.40;;
60700;SDS011;46541;49.894;10.886;2023-04-21T02:14:13;25.05;;;16.38;;
60700;SDS011;46541;49.894;10.886;2023-04-21T02:16:40;25.30;;;15.80;;
60700;SDS011;46541;49.894;10.886;2023-04-21T02:19:07;24.02;;;15.55;;
60700;SDS011;46541;49.894;10.886;2023-04-21T02:21:34;25.23;;;14.57;;
60700;SDS011;46541;49.894;10.886;2023-04-21T02:24:01;27.40;;;15.80;;
60700;SDS011;46541;49.894;10.886;2023-04-21T02:26:27;24.30;;;16.10;;
60700;SDS011;46541;49.894;10.886;2023-04-21T02:28:54;24.67;;;15.38;;
60700;SDS011;46541;49.894;10.886;2023-04-21T02:31:21;24.98;;;14.57;;
60700;SDS011;46541;49.894;10.886;2023-04-21T02:33:48;23.30;;;15.00;;
60700;SDS011;46541;49.894;10.886;2023-04-21T02:36:14;21.63;;;13.82;;
60700;SDS011;46541;49.894;10.886;2023-04-21T02:38:41;23.70;;;14.88;;
60700;SDS011;46541;49.894;10.886;2023-04-21T02:41:08;24.52;;;15.20;;
60700;SDS011;46541;49.894;10.886;2023-04-21T02:43:34;23.25;;;13.82;;
60700;SDS011;46541;49.894;10.886;2023-04-21T02:46:05;24.25;;;14.55;;
60700;SDS011;46541;49.894;10.886;2023-04-21T02:48:33;21.05;;;12.82;;
60700;SDS011;46541;49.894;10.886;2023-04-21T02:51:00;24.90;;;14.35;;
60700;SDS011;46541;49.894;10.886;2023-04-21T02:53:27;26.10;;;14.35;;
60700;SDS011;46541;49.894;10.886;2023-04-21T02:55:54;21.35;;;13.93;;
60700;SDS011;46541;49.894;10.886;2023-04-21T02:58:21;23.60;;;13.75;;
60700;SDS011;46541;49.894;10.886;2023-04-21T03:00:48;21.58;;;13.68;;
60700;SDS011;46541;49.894;10.886;2023-04-21T03:03:15;21.13;;;13.65;;
60700;SDS011;46541;49.894;10.886;2023-04-21T03:05:42;23.65;;;13.55;;
60700;SDS011;46541;49.894;10.886;2023-04-21T03:08:09;19.75;;;12.23;;
60700;SDS011;46541;49.894;10.886;2023-04-21T03:10:36;23.17;;;13.50;;
60700;SDS011;46541;49.894;10.886;2023-04-21T03:13:03;24.60;;;14.02;;
60700;SDS011;46541;49.894;10.886;2023-04-21T03:15:30;20.73;;;13.60;;
60700;SDS011;46541;49.894;10.886;2023-04-21T03:17:57;22.42;;;13.95;;
60700;SDS011;46541;49.894;10.886;2023-04-21T03:20:23;22.92;;;13.38;;
60700;SDS011;46541;49.894;10.886;2023-04-21T03:22:52;19.90;;;13.40;;
60700;SDS011;46541;49.894;10.886;2023-04-21T03:25:19;22.08;;;12.82;;
60700;SDS011;46541;49.894;10.886;2023-04-21T03:27:46;23.20;;;13.57;;
60700;SDS011;46541;49.894;10.886;2023-04-21T03:30:13;19.75;;;13.13;;
60700;SDS011;46541;49.894;10.886;2023-04-21T03:32:40;23.08;;;13.48;;
60700;SDS011;46541;49.894;10.886;2023-04-21T03:35:06;26.50;;;14.10;;
60700;SDS011;46541;49.894;10.886;2023-04-21T03:37:33;25.40;;;14.55;;
60700;SDS011;46541;49.894;10.886;2023-04-21T03:40:00;27.98;;;14.85;;
60700;SDS011;46541;49.894;10.886;2023-04-21T03:42:26;26.25;;;13.85;;
60700;SDS011;46541;49.894;10.886;2023-04-21T03:44:55;24.58;;;14.75;;
60700;SDS011;46541;49.894;10.886;2023-04-21T03:47:21;22.23;;;12.70;;
60700;SDS011;46541;49.894;10.886;2023-04-21T03:49:48;25.77;;;15.98;;
60700;SDS011;46541;49.894;10.886;2023-04-21T03:52:15;25.55;;;14.35;;
60700;SDS011;46541;49.894;10.886;2023-04-21T03:54:42;24.58;;;13.93;;
60700;SDS011;46541;49.894;10.886;2023-04-21T03:57:08;25.20;;;13.98;;
60700;SDS011;46541;49.894;10.886;2023-04-21T03:59:35;25.42;;;14.73;;
60700;SDS011;46541;49.894;10.886;2023-04-21T04:02:02;22.52;;;14.13;;
60700;SDS011;46541;49.894;10.886;2023-04-21T04:04:29;19.98;;;13.48;;
60700;SDS011;46541;49.894;10.886;2023-04-21T04:06:56;27.05;;;16.33;;
60700;SDS011;46541;49.894;10.886;2023-04-21T04:09:23;22.63;;;14.45;;
60700;SDS011;46541;49.894;10.886;2023-04-21T04:11:49;34.30;;;17.58;;
60700;SDS011;46541;49.894;10.886;2023-04-21T04:14:16;24.35;;;14.65;;
60700;SDS011;46541;49.894;10.886;2023-04-21T04:16:43;28.88;;;16.73;;
60700;SDS011;46541;49.894;10.886;2023-04-21T04:19:10;25.98;;;17.15;;
60700;SDS011;46541;49.894;10.886;2023-04-21T04:21:37;24.73;;;15.07;;
60700;SDS011;46541;49.894;10.886;2023-04-21T04:24:04;23.73;;;15.02;;
60700;SDS011;46541;49.894;10.886;2023-04-21T04:26:31;28.10;;;16.98;;
60700;SDS011;46541;49.894;10.886;2023-04-21T04:29:03;28.77;;;16.60;;
60700;SDS011;46541;49.894;10.886;2023-04-21T04:31:31;23.02;;;14.02;;
60700;SDS011;46541;49.894;10.886;2023-04-21T04:33:57;28.60;;;17.08;;
60700;SDS011;46541;49.894;10.886;2023-04-21T04:36:24;24.23;;;16.10;;
60700;SDS011;46541;49.894;10.886;2023-04-21T04:38:53;30.70;;;17.02;;
60700;SDS011;46541;49.894;10.886;2023-04-21T04:41:21;22.58;;;14.55;;
60700;SDS011;46541;49.894;10.886;2023-04-21T04:43:49;25.80;;;14.93;;
60700;SDS011;46541;49.894;10.886;2023-04-21T04:46:16;26.58;;;15.50;;
60700;SDS011;46541;49.894;10.886;2023-04-21T04:48:45;25.27;;;14.48;;
60700;SDS011;46541;49.894;10.886;2023-04-21T04:51:12;23.63;;;14.65;;
60700;SDS011;46541;49.894;10.886;2023-04-21T04:53:39;21.30;;;14.50;;
60700;SDS011;46541;49.894;10.886;2023-04-21T04:56:05;21.27;;;14.18;;
60700;SDS011;46541;49.894;10.886;2023-04-21T04:58:32;28.05;;;15.52;;
60700;SDS011;46541;49.894;10.886;2023-04-21T05:01:09;28.23;;;14.73;;
60700;SDS011;46541;49.894;10.886;2023-04-21T05:03:39;26.15;;;15.48;;
60700;SDS011;46541;49.894;10.886;2023-04-21T05:06:06;23.88;;;14.30;;
60700;SDS011;46541;49.894;10.886;2023-04-21T05:08:33;27.85;;;17.27;;
60700;SDS011;46541;49.894;10.886;2023-04-21T05:11:00;23.65;;;16.02;;
60700;SDS011;46541;49.894;10.886;2023-04-21T05:13:27;29.10;;;17.63;;
60700;SDS011;46541;49.894;10.886;2023-04-21T05:15:57;27.80;;;16.83;;
60700;SDS011;46541;49.894;10.886;2023-04-21T05:18:27;27.48;;;15.43;;
60700;SDS011;46541;49.894;10.886;2023-04-21T05:20:53;24.08;;;14.18;;
60700;SDS011;46541;49.894;10.886;2023-04-21T05:23:21;25.20;;;15.82;;
60700;SDS011;46541;49.894;10.886;2023-04-21T05:25:48;29.45;;;17.20;;
60700;SDS011;46541;49.894;10.886;2023-04-21T05:28:15;26.50;;;15.73;;
60700;SDS011;46541;49.894;10.886;2023-04-21T05:30:42;29.58;;;16.08;;
60700;SDS011;46541;49.894;10.886;2023-04-21T05:33:09;29.27;;;17.00;;
60700;SDS011;46541;49.894;10.886;2023-04-21T05:35:35;24.52;;;14.23;;
60700;SDS011;46541;49.894;10.886;2023-04-21T05:38:03;23.83;;;14.68;;
60700;SDS011;46541;49.894;10.886;2023-04-21T05:40:31;25.92;;;15.20;;
60700;SDS011;46541;49.894;10.886;2023-04-21T05:42:58;25.50;;;14.88;;
60700;SDS011;46541;49.894;10.886;2023-04-21T05:45:24;25.42;;;14.65;;
60700;SDS011;46541;49.894;10.886;2023-04-21T05:47:51;25.23;;;14.45;;
60700;SDS011;46541;49.894;10.886;2023-04-21T05:50:18;29.13;;;16.40;;
60700;SDS011;46541;49.894;10.886;2023-04-21T05:52:44;26.90;;;15.18;;
60700;SDS011;46541;49.894;10.886;2023-04-21T05:55:11;29.90;;;15.60;;
60700;SDS011;46541;49.894;10.886;2023-04-21T05:57:38;26.33;;;14.98;;
60700;SDS011;46541;49.894;10.886;2023-04-21T06:00:05;27.95;;;15.95;;
60700;SDS011;46541;49.894;10.886;2023-04-21T06:02:32;30.50;;;18.73;;
60700;SDS011;46541;49.894;10.886;2023-04-21T06:04:59;34.67;;;18.98;;
60700;SDS011;46541;49.894;10.886;2023-04-21T06:07:26;36.50;;;21.00;;
60700;SDS011;46541;49.894;10.886;2023-04-21T06:09:53;37.30;;;21.15;;
60700;SDS011;46541;49.894;10.886;2023-04-21T06:12:19;28.70;;;16.83;;
60700;SDS011;46541;49.894;10.886;2023-04-21T06:14:46;27.65;;;17.08;;
60700;SDS011;46541;49.894;10.886;2023-04-21T06:17:16;25.98;;;16.52;;
60700;SDS011;46541;49.894;10.886;2023-04-21T06:19:43;23.40;;;15.93;;
60700;SDS011;46541;49.894;10.886;2023-04-21T06:22:10;27.75;;;15.73;;
60700;SDS011;46541;49.894;10.886;2023-04-21T06:24:36;27.67;;;16.77;;
60700;SDS011;46541;49.894;10.886;2023-04-21T06:27:08;24.33;;;17.52;;
60700;SDS011;46541;49.894;10.886;2023-04-21T06:29:36;34.80;;;22.67;;
60700;SDS011;46541;49.894;10.886;2023-04-21T06:32:02;29.77;;;18.83;;
60700;SDS011;46541;49.894;10.886;2023-04-21T06:34:29;28.00;;;17.70;;
60700;SDS011;46541;49.894;10.886;2023-04-21T06:36:56;24.40;;;15.23;;
60700;SDS011;46541;49.894;10.886;2023-04-21T06:39:23;50.10;;;36.97;;
60700;SDS011;46541;49.894;10.886;2023-04-21T06:41:49;41.75;;;30.75;;
60700;SDS011;46541;49.894;10.886;2023-04-21T06:44:16;30.75;;;22.27;;
60700;SDS011;46541;49.894;10.886;2023-04-21T06:46:44;28.35;;;17.70;;
60700;SDS011;46541;49.894;10.886;2023-04-21T06:49:10;17.80;;;12.40;;
60700;SDS011;46541;49.894;10.886;2023-04-21T06:51:37;22.27;;;11.52;;
60700;SDS011;46541;49.894;10.886;2023-04-21T06:54:04;18.30;;;11.93;;
60700;SDS011;46541;49.894;10.886;2023-04-21T06:56:31;17.23;;;10.75;;
60700;SDS011;46541;49.894;10.886;2023-04-21T06:58:58;17.42;;;10.85;;
60700;SDS011;46541;49.894;10.886;2023-04-21T07:01:25;16.10;;;10.73;;
60700;SDS011;46541;49.894;10.886;2023-04-21T07:03:51;16.35;;;10.18;;
60700;SDS011;46541;49.894;10.886;2023-04-21T07:06:18;20.23;;;11.40;;
60700;SDS011;46541;49.894;10.886;2023-04-21T07:08:45;15.07;;;9.95;;
60700;SDS011;46541;49.894;10.886;2023-04-21T07:11:12;18.33;;;9.50;;
60700;SDS011;46541;49.894;10.886;2023-04-21T07:13:38;15.20;;;9.60;;
60700;SDS011;46541;49.894;10.886;2023-04-21T07:16:05;16.27;;;9.98;;
60700;SDS011;46541;49.894;10.886;2023-04-21T07:18:32;15.57;;;9.52;;
60700;SDS011;46541;49.894;10.886;2023-04-21T07:20:59;18.05;;;9.63;;
60700;SDS011;46541;49.894;10.886;2023-04-21T07:23:26;12.85;;;8.05;;
60700;SDS011;46541;49.894;10.886;2023-04-21T07:25:53;17.25;;;9.05;;
60700;SDS011;46541;49.894;10.886;2023-04-21T07:28:19;13.93;;;8.65;;
60700;SDS011;46541;49.894;10.886;2023-04-21T07:30:46;15.48;;;8.90;;
60700;SDS011;46541;49.894;10.886;2023-04-21T07:33:13;13.57;;;9.13;;
60700;SDS011;46541;49.894;10.886;2023-04-21T07:35:40;12.30;;;8.50;;
60700;SDS011;46541;49.894;10.886;2023-04-21T07:38:07;9.90;;;7.20;;
60700;SDS011;46541;49.894;10.886;2023-04-21T07:40:34;12.98;;;8.50;;
60700;SDS011;46541;49.894;10.886;2023-04-21T07:43:00;14.20;;;8.32;;
60700;SDS011;46541;49.894;10.886;2023-04-21T07:45:27;13.68;;;7.90;;
60700;SDS011;46541;49.894;10.886;2023-04-21T07:47:54;13.23;;;8.18;;
60700;SDS011;46541;49.894;10.886;2023-04-21T07:50:21;12.02;;;7.50;;
60700;SDS011;46541;49.894;10.886;2023-04-21T07:52:47;12.32;;;8.32;;
60700;SDS011;46541;49.894;10.886;2023-04-21T07:55:14;12.90;;;7.60;;
60700;SDS011;46541;49.894;10.886;2023-04-21T07:57:41;12.45;;;8.55;;
60700;SDS011;46541;49.894;10.886;2023-04-21T08:00:08;18.08;;;10.90;;
60700;SDS011;46541;49.894;10.886;2023-04-21T08:02:35;11.57;;;7.53;;
60700;SDS011;46541;49.894;10.886;2023-04-21T08:05:03;12.45;;;7.82;;
60700;SDS011;46541;49.894;10.886;2023-04-21T08:07:30;9.75;;;7.38;;
60700;SDS011;46541;49.894;10.886;2023-04-21T08:09:57;14.40;;;7.82;;
60700;SDS011;46541;49.894;10.886;2023-04-21T08:12:25;10.55;;;7.05;;
60700;SDS011;46541;49.894;10.886;2023-04-21T08:14:52;11.82;;;6.93;;
60700;SDS011;46541;49.894;10.886;2023-04-21T08:17:21;12.75;;;8.05;;
60700;SDS011;46541;49.894;10.886;2023-04-21T08:19:48;11.75;;;7.40;;
60700;SDS011;46541;49.894;10.886;2023-04-21T08:22:15;10.55;;;7.65;;
60700;SDS011;46541;49.894;10.886;2023-04-21T08:24:42;12.40;;;7.05;;
60700;SDS011;46541;49.894;10.886;2023-04-21T08:27:09;12.23;;;6.90;;
60700;SDS011;46541;49.894;10.886;2023-04-21T08:29:36;9.63;;;6.70;;
60700;SDS011;46541;49.894;10.886;2023-04-21T08:32:03;8.45;;;6.18;;
60700;SDS011;46541;49.894;10.886;2023-04-21T08:34:30;7.93;;;5.57;;
60700;SDS011;46541;49.894;10.886;2023-04-21T08:36:56;9.10;;;5.80;;
60700;SDS011;46541;49.894;10.886;2023-04-21T08:39:23;10.00;;;6.97;;
60700;SDS011;46541;49.894;10.886;2023-04-21T08:41:50;8.63;;;6.15;;
60700;SDS011;46541;49.894;10.886;2023-04-21T08:44:17;7.93;;;6.00;;
60700;SDS011;46541;49.894;10.886;2023-04-21T08:46:44;9.32;;;6.32;;
60700;SDS011;46541;49.894;10.886;2023-04-21T08:49:15;12.60;;;8.88;;
60700;SDS011;46541;49.894;10.886;2023-04-21T08:51:46;10.40;;;6.55;;
60700;SDS011;46541;49.894;10.886;2023-04-21T08:54:13;12.30;;;6.68;;
60700;SDS011;46541;49.894;10.886;2023-04-21T08:56:39;14.32;;;7.65;;
60700;SDS011;46541;49.894;10.886;2023-04-21T08:59:06;11.65;;;8.93;;
60700;SDS011;46541;49.894;10.886;2023-04-21T09:01:41;11.07;;;6.07;;
60700;SDS011;46541;49.894;10.886;2023-04-21T09:04:42;13.65;;;8.55;;
60700;SDS011;46541;49.894;10.886;2023-04-21T09:07:35;11.10;;;6.80;;
60700;SDS011;46541;49.894;10.886;2023-04-21T09:10:04;10.95;;;6.63;;
60700;SDS011;46541;49.894;10.886;2023-04-21T09:12:32;10.60;;;7.13;;
60700;SDS011;46541;49.894;10.886;2023-04-21T09:14:58;8.57;;;6.13;;
60700;SDS011;46541;49.894;10.886;2023-04-21T09:17:30;9.13;;;6.40;;
60700;SDS011;46541;49.894;10.886;2023-04-21T09:20:10;11.52;;;6.60;;
60700;SDS011;46541;49.894;10.886;2023-04-21T09:22:39;9.20;;;6.90;;
60700;SDS011;46541;49.894;10.886;2023-04-21T09:25:06;13.30;;;7.45;;
60700;SDS011;46541;49.894;10.886;2023-04-21T09:27:36;9.02;;;6.05;;
60700;SDS011;46541;49.894;10.886;2023-04-21T09:30:06;12.57;;;6.32;;
60700;SDS011;46541;49.894;10.886;2023-04-21T09:32:37;9.20;;;6.45;;
60700;SDS011;46541;49.894;10.886;2023-04-21T09:35:08;13.45;;;7.88;;
60700;SDS011;46541;49.894;10.886;2023-04-21T09:37:36;10.77;;;6.30;;
60700;SDS011;46541;49.894;10.886;2023-04-21T09:40:03;10.57;;;6.07;;
60700;SDS011;46541;49.894;10.886;2023-04-21T09:42:31;7.95;;;5.78;;
60700;SDS011;46541;49.894;10.886;2023-04-21T09:45:02;11.63;;;6.80;;
60700;SDS011;46541;49.894;10.886;2023-04-21T09:47:49;25.05;;;15.52;;
60700;SDS011;46541;49.894;10.886;2023-04-21T09:50:17;10.25;;;7.00;;
60700;SDS011;46541;49.894;10.886;2023-04-21T09:53:06;7.88;;;5.50;;
60700;SDS011;46541;49.894;10.886;2023-04-21T09:55:39;8.90;;;5.53;;
60700;SDS011;46541;49.894;10.886;2023-04-21T09:58:07;11.10;;;6.22;;
60700;SDS011;46541;49.894;10.886;2023-04-21T10:00:36;9.27;;;5.57;;
60700;SDS011;46541;49.894;10.886;2023-04-21T10:03:05;11.80;;;5.25;;
60700;SDS011;46541;49.894;10.886;2023-04-21T10:05:37;10.82;;;6.40;;
60700;SDS011;46541;49.894;10.886;2023-04-21T10:08:08;7.43;;;4.68;;
60700;SDS011;46541;49.894;10.886;2023-04-21T10:10:37;9.90;;;5.40;;
60700;SDS011;46541;49.894;10.886;2023-04-21T10:13:05;8.77;;;5.03;;
60700;SDS011;46541;49.894;10.886;2023-04-21T10:15:39;11.10;;;5.72;;
60700;SDS011;46541;49.894;10.886;2023-04-21T10:20:56;7.82;;;5.60;;
60700;SDS011;46541;49.894;10.886;2023-04-21T10:23:41;8.95;;;5.30;;
60700;SDS011;46541;49.894;10.886;2023-04-21T10:26:22;7.28;;;5.10;;
60700;SDS011;46541;49.894;10.886;2023-04-21T10:29:00;7.57;;;5.47;;
60700;SDS011;46541;49.894;10.886;2023-04-21T10:39:08;7.00;;;4.72;;
60700;SDS011;46541;49.894;10.886;2023-04-21T10:41:43;8.85;;;5.00;;
60700;SDS011;46541;49.894;10.886;2023-04-21T10:44:12;5.70;;;4.53;;
60700;SDS011;46541;49.894;10.886;2023-04-21T10:46:40;6.40;;;4.15;;
60700;SDS011;46541;49.894;10.886;2023-04-21T10:49:20;8.23;;;3.97;;
60700;SDS011;46541;49.894;10.886;2023-04-21T10:54:37;6.43;;;4.40;;
60700;SDS011;46541;49.894;10.886;2023-04-21T10:57:07;6.35;;;5.25;;
60700;SDS011;46541;49.894;10.886;2023-04-21T10:59:36;7.32;;;4.38;;
60700;SDS011;46541;49.894;10.886;2023-04-21T11:02:07;6.82;;;3.58;;
60700;SDS011;46541;49.894;10.886;2023-04-21T11:04:38;9.07;;;4.70;;
60700;SDS011;46541;49.894;10.886;2023-04-21T11:07:11;7.68;;;4.15;;
60700;SDS011;46541;49.894;10.886;2023-04-21T11:09:40;9.95;;;5.05;;
60700;SDS011;46541;49.894;10.886;2023-04-21T11:12:08;4.63;;;3.97;;
60700;SDS011;46541;49.894;10.886;2023-04-21T11:14:36;9.27;;;4.35;;
60700;SDS011;46541;49.894;10.886;2023-04-21T11:17:09;9.23;;;3.92;;
60700;SDS011;46541;49.894;10.886;2023-04-21T11:19:36;5.95;;;3.85;;
60700;SDS011;46541;49.894;10.886;2023-04-21T11:22:04;7.38;;;4.55;;
60700;SDS011;46541;49.894;10.886;2023-04-21T11:24:31;4.82;;;4.03;;
60700;SDS011;46541;49.894;10.886;2023-04-21T11:26:59;8.82;;;4.55;;
60700;SDS011;46541;49.894;10.886;2023-04-21T11:29:27;7.25;;;4.63;;
60700;SDS011;46541;49.894;10.886;2023-04-21T11:31:56;7.30;;;4.68;;
60700;SDS011;46541;49.894;10.886;2023-04-21T11:34:24;8.95;;;4.63;;
60700;SDS011;46541;49.894;10.886;2023-04-21T11:36:52;6.65;;;3.58;;
60700;SDS011;46541;49.894;10.886;2023-04-21T11:39:19;5.65;;;3.70;;
60700;SDS011;46541;49.894;10.886;2023-04-21T11:41:48;6.10;;;3.58;;
60700;SDS011;46541;49.894;10.886;2023-04-21T11:44:32;4.95;;;3.30;;
60700;SDS011;46541;49.894;10.886;2023-04-21T11:47:16;3.92;;;3.10;;
60700;SDS011;46541;49.894;10.886;2023-04-21T11:50:28;5.43;;;3.40;;
60700;SDS011;46541;49.894;10.886;2023-04-21T11:52:54;7.95;;;3.95;;
60700;SDS011;46541;49.894;10.886;2023-04-21T11:55:21;6.18;;;3.38;;
60700;SDS011;46541;49.894;10.886;2023-04-21T11:57:49;4.30;;;3.28;;
60700;SDS011;46541;49.894;10.886;2023-04-21T12:00:18;4.32;;;2.65;;
60700;SDS011;46541;49.894;10.886;2023-04-21T12:02:52;3.33;;;2.70;;
60700;SDS011;46541;49.894;10.886;2023-04-21T12:05:22;4.10;;;3.08;;
60700;SDS011;46541;49.894;10.886;2023-04-21T12:07:49;5.68;;;3.60;;
60700;SDS011;46541;49.894;10.886;2023-04-21T12:10:19;6.22;;;3.70;;
60700;SDS011;46541;49.894;10.886;2023-04-21T12:12:46;6.38;;;3.60;;
60700;SDS011;46541;49.894;10.886;2023-04-21T12:15:17;5.70;;;3.60;;
60700;SDS011;46541;49.894;10.886;2023-04-21T12:20:19;7.75;;;4.40;;
60700;SDS011;46541;49.894;10.886;2023-04-21T12:22:49;7.63;;;3.88;;
60700;SDS011;46541;49.894;10.886;2023-04-21T12:25:17;4.78;;;3.75;;
60700;SDS011;46541;49.894;10.886;2023-04-21T12:27:51;12.18;;;3.78;;
60700;SDS011;46541;49.894;10.886;2023-04-21T12:30:22;6.68;;;3.92;;
60700;SDS011;46541;49.894;10.886;2023-04-21T12:32:49;4.70;;;3.53;;
60700;SDS011;46541;49.894;10.886;2023-04-21T12:35:17;3.83;;;2.90;;
60700;SDS011;46541;49.894;10.886;2023-04-21T12:37:44;4.40;;;2.97;;
60700;SDS011;46541;49.894;10.886;2023-04-21T12:40:10;5.88;;;2.83;;
60700;SDS011;46541;49.894;10.886;2023-04-21T12:42:37;3.60;;;2.67;;
60700;SDS011;46541;49.894;10.886;2023-04-21T12:45:04;4.00;;;3.03;;
60700;SDS011;46541;49.894;10.886;2023-04-21T12:47:32;3.65;;;2.50;;
60700;SDS011;46541;49.894;10.886;2023-04-21T12:49:59;4.30;;;2.83;;
60700;SDS011;46541;49.894;10.886;2023-04-21T12:52:26;7.25;;;2.85;;
60700;SDS011;46541;49.894;10.886;2023-04-21T12:54:53;4.28;;;3.30;;
60700;SDS011;46541;49.894;10.886;2023-04-21T12:57:20;4.07;;;3.15;;
60700;SDS011;46541;49.894;10.886;2023-04-21T12:59:47;3.15;;;2.60;;
60700;SDS011;46541;49.894;10.886;2023-04-21T13:02:13;7.85;;;3.20;;
60700;SDS011;46541;49.894;10.886;2023-04-21T13:04:40;3.35;;;2.80;;
60700;SDS011;46541;49.894;10.886;2023-04-21T13:07:07;6.65;;;3.58;;
60700;SDS011;46541;49.894;10.886;2023-04-21T13:09:35;5.30;;;2.65;;
60700;SDS011;46541;49.894;10.886;2023-04-21T13:12:01;8.13;;;3.58;;
60700;SDS011;46541;49.894;10.886;2023-04-21T13:14:28;4.57;;;2.72;;
60700;SDS011;46541;49.894;10.886;2023-04-21T13:16:55;4.97;;;2.85;;
60700;SDS011;46541;49.894;10.886;2023-04-21T13:19:22;4.38;;;2.70;;
60700;SDS011;46541;49.894;10.886;2023-04-21T13:21:49;4.13;;;3.00;;
60700;SDS011;46541;49.894;10.886;2023-04-21T13:24:19;3.72;;;3.03;;
60700;SDS011;46541;49.894;10.886;2023-04-21T13:26:46;4.93;;;2.80;;
60700;SDS011;46541;49.894;10.886;2023-04-21T13:29:13;8.00;;;5.90;;
60700;SDS011;46541;49.894;10.886;2023-04-21T13:31:41;7.13;;;3.33;;
60700;SDS011;46541;49.894;10.886;2023-04-21T13:34:07;3.85;;;2.85;;
60700;SDS011;46541;49.894;10.886;2023-04-21T13:36:34;5.55;;;3.15;;
60700;SDS011;46541;49.894;10.886;2023-04-21T13:39:01;6.25;;;3.53;;
60700;SDS011;46541;49.894;10.886;2023-04-21T13:41:29;7.55;;;4.65;;
60700;SDS011;46541;49.894;10.886;2023-04-21T13:43:56;6.13;;;3.38;;
60700;SDS011;46541;49.894;10.886;2023-04-21T13:46:23;5.30;;;3.20;;
60700;SDS011;46541;49.894;10.886;2023-04-21T13:48:50;7.60;;;3.70;;
60700;SDS011;46541;49.894;10.886;2023-04-21T13:51:17;3.72;;;2.85;;
60700;SDS011;46541;49.894;10.886;2023-04-21T13:53:45;8.25;;;3.33;;
60700;SDS011;46541;49.894;10.886;2023-04-21T13:56:13;7.28;;;3.80;;
60700;SDS011;46541;49.894;10.886;2023-04-21T13:58:40;3.53;;;2.90;;
60700;SDS011;46541;49.894;10.886;2023-04-21T14:01:07;5.55;;;3.75;;
60700;SDS011;46541;49.894;10.886;2023-04-21T14:03:34;3.90;;;2.65;;
60700;SDS011;46541;49.894;10.886;2023-04-21T14:06:01;3.97;;;2.88;;
60700;SDS011;46541;49.894;10.886;2023-04-21T14:08:28;3.42;;;2.58;;
60700;SDS011;46541;49.894;10.886;2023-04-21T14:10:55;7.13;;;3.47;;
60700;SDS011;46541;49.894;10.886;2023-04-21T14:13:23;3.95;;;2.63;;
60700;SDS011;46541;49.894;10.886;2023-04-21T14:15:58;4.30;;;2.80;;
60700;SDS011;46541;49.894;10.886;2023-04-21T14:18:25;3.63;;;2.70;;
60700;SDS011;46541;49.894;10.886;2023-04-21T14:20:52;5.82;;;3.13;;
60700;SDS011;46541;49.894;10.886;2023-04-21T14:23:18;4.63;;;3.42;;
60700;SDS011;46541;49.894;10.886;2023-04-21T14:25:45;9.40;;;4.47;;
60700;SDS011;46541;49.894;10.886;2023-04-21T14:28:12;6.45;;;3.03;;
60700;SDS011;46541;49.894;10.886;2023-04-21T14:30:39;5.10;;;2.75;;
60700;SDS011;46541;49.894;10.886;2023-04-21T14:33:08;2.92;;;2.53;;
60700;SDS011;46541;49.894;10.886;2023-04-21T14:35:38;3.72;;;2.95;;
60700;SDS011;46541;49.894;10.886;2023-04-21T14:38:04;5.32;;;3.30;;
60700;SDS011;46541;49.894;10.886;2023-04-21T14:40:31;3.05;;;2.75;;